createdAt,value
2022-08-20T00:02:41.730Z,2.43
2022-08-20T00:08:06.823Z,2.15
2022-08-20T00:13:35.651Z,1.83
2022-08-20T00:18:57.346Z,1.98
2022-08-20T00:24:19.103Z,1.50
2022-08-20T00:29:40.839Z,1.90
2022-08-20T00:35:02.508Z,1.70
2022-08-20T00:40:30.971Z,1.70
2022-08-20T00:45:56.518Z,1.70
2022-08-20T00:51:33.914Z,1.55
2022-08-20T00:57:23.008Z,1.70
2022-08-20T01:02:46.672Z,2.05
2022-08-20T01:08:09.390Z,1.42
2022-08-20T01:13:31.811Z,1.23
2022-08-20T01:18:54.606Z,1.58
2022-08-20T01:24:34.811Z,1.40
2022-08-20T01:29:57.106Z,1.55
2022-08-20T01:35:23.257Z,1.33
2022-08-20T01:41:06.632Z,1.70
2022-08-20T01:46:32.955Z,1.35
2022-08-20T01:52:06.245Z,1.48
2022-08-20T01:57:29.413Z,1.40
2022-08-20T02:02:51.557Z,1.55
2022-08-20T02:08:13.260Z,1.50
2022-08-20T02:13:35.096Z,1.35
2022-08-20T02:19:01.299Z,1.38
2022-08-20T02:24:23.098Z,1.50
2022-08-20T02:29:46.801Z,1.45
2022-08-20T02:35:12.188Z,1.40
2022-08-20T02:40:34.140Z,1.30
2022-08-20T02:45:55.850Z,1.25
2022-08-20T02:51:17.590Z,1.50
2022-08-20T02:56:52.386Z,1.20
2022-08-20T03:02:15.553Z,1.45
2022-08-20T03:07:48.290Z,1.50
2022-08-20T03:13:13.722Z,1.23
2022-08-20T03:18:42.755Z,1.20
2022-08-20T03:24:05.716Z,1.17
2022-08-20T03:29:27.415Z,1.05
2022-08-20T03:34:49.103Z,1.33
2022-08-20T03:40:15.700Z,1.17
2022-08-20T03:45:39.614Z,1.10
2022-08-20T03:51:01.418Z,1.00
2022-08-20T03:56:23.370Z,1.05
2022-08-20T04:01:46.741Z,1.15
2022-08-20T04:07:25.981Z,1.30
2022-08-20T04:12:52.960Z,1.10
2022-08-20T04:18:20.765Z,1.10
2022-08-20T04:23:42.464Z,1.17
2022-08-20T04:29:04.724Z,1.20
2022-08-20T04:34:26.492Z,1.02
2022-08-20T04:40:09.715Z,1.08
2022-08-20T04:45:32.953Z,1.00
2022-08-20T04:50:56.168Z,1.08
2022-08-20T04:56:26.142Z,1.15
2022-08-20T05:01:47.810Z,1.10
2022-08-20T05:07:11.385Z,0.90
2022-08-20T05:12:33.091Z,1.00
2022-08-20T05:17:58.034Z,0.77
2022-08-20T05:23:21.104Z,1.10
2022-08-20T05:28:58.065Z,1.02
2022-08-20T05:34:20.609Z,0.88
2022-08-20T05:39:42.497Z,1.20
2022-08-20T05:45:11.061Z,0.82
2022-08-20T05:50:33.378Z,1.17
2022-08-20T05:55:55.077Z,1.13
2022-08-20T06:01:16.795Z,1.10
2022-08-20T06:06:46.122Z,1.30
2022-08-20T06:12:09.602Z,1.00
2022-08-20T06:17:34.880Z,1.08
2022-08-20T06:23:01.250Z,1.15
2022-08-20T06:28:23.666Z,1.10
2022-08-20T06:33:45.474Z,1.15
2022-08-20T06:39:07.173Z,1.40
2022-08-20T06:44:29.192Z,1.70
2022-08-20T06:49:50.909Z,1.30
2022-08-20T06:55:15.265Z,1.60
2022-08-20T07:00:39.310Z,1.73
2022-08-20T07:06:01.075Z,1.55
2022-08-20T07:11:27.799Z,1.58
2022-08-20T07:16:50.652Z,1.85
2022-08-20T07:22:14.932Z,1.90
2022-08-20T07:27:36.718Z,2.13
2022-08-20T07:32:58.594Z,1.83
2022-08-20T07:38:24.562Z,2.42
2022-08-20T07:43:47.574Z,2.23
2022-08-20T07:49:10.102Z,2.10
2022-08-20T07:54:32.045Z,2.53
2022-08-20T07:59:53.981Z,3.10
2022-08-20T08:05:16.349Z,3.30
2022-08-20T08:10:40.901Z,3.83
2022-08-20T08:16:06.409Z,3.77
2022-08-20T08:21:30.116Z,3.97
2022-08-20T08:26:52.628Z,3.78
2022-08-20T08:32:14.333Z,3.85
2022-08-20T08:37:38.036Z,4.30
2022-08-20T08:43:04.269Z,4.47
2022-08-20T08:48:32.613Z,3.97
2022-08-20T08:53:55.914Z,4.28
2022-08-20T08:59:22.621Z,4.85
2022-08-20T09:04:44.861Z,4.72
2022-08-20T09:10:07.397Z,4.60
2022-08-20T09:15:29.074Z,5.40
2022-08-20T09:20:50.819Z,4.70
2022-08-20T09:26:13.711Z,4.95
2022-08-20T09:31:35.560Z,4.28
2022-08-20T09:36:59.474Z,4.78
2022-08-20T09:42:30.960Z,4.20
2022-08-20T09:48:10.309Z,3.95
2022-08-20T09:53:32.753Z,3.83
2022-08-20T09:58:57.242Z,4.47
2022-08-20T10:04:22.155Z,3.97
2022-08-20T10:09:44.022Z,3.80
2022-08-20T10:15:06.162Z,3.60
2022-08-20T10:20:27.879Z,3.22
2022-08-20T10:25:49.546Z,3.00
2022-08-20T10:31:12.513Z,2.92
2022-08-20T10:36:34.265Z,3.10
2022-08-20T10:41:55.958Z,2.40
2022-08-20T10:47:20.620Z,2.75
2022-08-20T10:52:42.443Z,2.67
2022-08-20T10:58:06.296Z,2.88
2022-08-20T11:03:28.076Z,2.83
2022-08-20T11:08:49.756Z,2.20
2022-08-20T11:14:13.180Z,2.83
2022-08-20T11:19:43.050Z,2.90
2022-08-20T11:25:06.717Z,1.73
2022-08-20T11:30:32.275Z,2.05
2022-08-20T11:35:53.960Z,1.92
2022-08-20T11:41:15.629Z,2.53
2022-08-20T11:46:37.598Z,2.45
2022-08-20T11:51:59.284Z,2.25
2022-08-20T11:57:26.602Z,2.42
2022-08-20T12:02:51.806Z,2.55
2022-08-20T12:08:25.132Z,1.88
2022-08-20T12:13:49.602Z,2.08
2022-08-20T12:19:11.387Z,1.80
2022-08-20T12:24:33.220Z,2.40
2022-08-20T12:29:57.207Z,3.05
2022-08-20T12:35:20.132Z,2.30
2022-08-20T12:40:41.900Z,3.20
2022-08-20T12:46:03.865Z,2.47
2022-08-20T12:51:25.633Z,2.88
2022-08-20T12:56:48.203Z,2.85
2022-08-20T13:02:14.363Z,2.60
2022-08-20T13:07:42.038Z,2.10
2022-08-20T13:13:04.194Z,2.40
2022-08-20T13:18:26.013Z,2.15
2022-08-20T13:23:47.720Z,2.22
2022-08-20T13:29:09.405Z,2.05
2022-08-20T13:34:31.210Z,1.95
2022-08-20T13:39:54.546Z,2.10
2022-08-20T13:45:16.439Z,2.10
2022-08-20T13:50:39.070Z,1.80
2022-08-20T13:56:00.846Z,2.10
2022-08-20T14:01:22.599Z,1.85
2022-08-20T14:06:44.351Z,2.20
2022-08-20T14:12:06.734Z,1.98
2022-08-20T14:17:32.188Z,1.70
2022-08-20T14:22:53.978Z,2.03
2022-08-20T14:28:22.066Z,2.10
2022-08-20T14:33:44.799Z,1.30
2022-08-20T14:39:06.649Z,1.60
2022-08-20T14:44:29.935Z,2.25
2022-08-20T14:49:53.465Z,1.80
2022-08-20T14:55:19.192Z,2.00
2022-08-20T15:00:42.314Z,1.67
2022-08-20T15:06:04.388Z,1.67
2022-08-20T15:11:32.393Z,1.50
2022-08-20T15:16:56.321Z,1.60
2022-08-20T15:22:18.691Z,1.50
2022-08-20T15:27:40.796Z,1.48
2022-08-20T15:33:03.236Z,1.77
2022-08-20T15:38:25.045Z,1.70
2022-08-20T15:43:46.906Z,1.77
2022-08-20T15:49:12.606Z,1.15
2022-08-20T15:54:35.115Z,1.85
2022-08-20T15:59:56.773Z,1.35
2022-08-20T16:05:28.090Z,1.50
2022-08-20T16:11:15.407Z,1.55
2022-08-20T16:16:46.694Z,1.77
2022-08-20T16:22:13.297Z,1.63
2022-08-20T16:27:40.745Z,2.10
2022-08-20T16:33:25.780Z,1.90
2022-08-20T16:38:57.262Z,2.03
2022-08-20T16:44:33.740Z,2.17
2022-08-20T16:50:13.538Z,3.40
2022-08-20T16:55:35.256Z,3.00
2022-08-20T17:01:25.513Z,2.60
2022-08-20T17:06:50.455Z,2.25
2022-08-20T17:12:28.046Z,2.22
2022-08-20T17:17:49.837Z,2.67
2022-08-20T17:23:18.118Z,2.00
2022-08-20T17:28:50.203Z,1.63
2022-08-20T17:34:20.753Z,1.40
2022-08-20T17:39:48.500Z,1.60
2022-08-20T17:45:18.548Z,1.52
2022-08-20T17:50:42.366Z,1.80
2022-08-20T17:56:23.603Z,1.55
2022-08-20T18:01:45.356Z,2.22
2022-08-20T18:07:06.982Z,2.33
2022-08-20T18:12:44.845Z,1.75
2022-08-20T18:18:26.282Z,2.97
2022-08-20T18:23:53.100Z,2.15
2022-08-20T18:29:23.837Z,2.08
2022-08-20T18:34:45.724Z,2.00
2022-08-20T18:40:17.186Z,2.15
2022-08-20T18:45:39.178Z,1.83
2022-08-20T18:51:07.881Z,2.05
2022-08-20T18:56:42.435Z,1.77
2022-08-20T19:02:19.814Z,1.90
2022-08-20T19:07:50.635Z,1.73
2022-08-20T19:13:37.013Z,1.95
2022-08-20T19:24:26.077Z,1.77
2022-08-20T19:29:50.103Z,1.35
2022-08-20T19:35:18.716Z,1.73
2022-08-20T19:40:43.676Z,1.77
2022-08-20T19:46:08.550Z,3.40
2022-08-20T19:51:44.161Z,1.80
2022-08-20T19:57:11.138Z,2.72
2022-08-20T20:02:35.276Z,1.38
2022-08-20T20:07:58.530Z,1.67
2022-08-20T20:13:30.869Z,2.03
2022-08-20T20:19:22.627Z,1.63
2022-08-20T20:24:44.214Z,1.38
2022-08-20T20:30:10.683Z,1.40
2022-08-20T20:35:34.957Z,1.67
2022-08-20T20:41:02.606Z,1.60
2022-08-20T20:46:28.857Z,1.23
2022-08-20T20:51:55.570Z,1.60
2022-08-20T20:57:37.822Z,2.00
2022-08-20T21:03:02.659Z,1.23
2022-08-20T21:08:25.759Z,1.50
2022-08-20T21:13:47.579Z,1.10
2022-08-20T21:19:12.293Z,1.25
2022-08-20T21:24:34.024Z,1.10
2022-08-20T21:29:55.946Z,1.00
2022-08-20T21:35:18.179Z,1.33
2022-08-20T21:40:39.994Z,1.30
2022-08-20T21:46:04.205Z,0.98
2022-08-20T21:51:27.318Z,1.10
2022-08-20T21:56:54.512Z,1.00
2022-08-20T22:02:17.940Z,1.33
2022-08-20T22:07:40.905Z,1.20
2022-08-20T22:13:03.005Z,1.05
2022-08-20T22:18:25.147Z,0.82
2022-08-20T22:23:47.550Z,0.85
2022-08-20T22:29:11.316Z,1.13
2022-08-20T22:34:35.285Z,1.10
2022-08-20T22:39:57.217Z,0.90
2022-08-20T22:45:19.914Z,1.02
2022-08-20T22:50:41.785Z,1.00
2022-08-20T22:56:03.707Z,1.20
2022-08-20T23:01:26.808Z,0.93
2022-08-20T23:06:48.747Z,1.30
2022-08-20T23:12:10.813Z,1.00
2022-08-20T23:17:33.472Z,1.10
2022-08-20T23:22:55.177Z,0.85
2022-08-20T23:28:22.405Z,0.95
2022-08-20T23:33:45.008Z,0.95
2022-08-20T23:39:07.301Z,0.95
2022-08-20T23:44:30.294Z,0.77
2022-08-20T23:49:52.038Z,1.00
2022-08-20T23:55:13.825Z,0.98
